sensor_id;sensor_type;location;lat;lon;timestamp;P1;durP1;ratioP1;P2;durP2;ratioP2
3004;SDS011;1512;51.486;6.610;2022-12-22T00:00:40;6.50;;;5.20;;
3004;SDS011;1512;51.486;6.610;2022-12-22T00:05:16;8.30;;;5.20;;
3004;SDS011;1512;51.486;6.610;2022-12-22T00:09:39;7.93;;;5.60;;
3004;SDS011;1512;51.486;6.610;2022-12-22T00:18:52;10.20;;;6.23;;
3004;SDS011;1512;51.486;6.610;2022-12-22T00:28:09;7.97;;;6.07;;
3004;SDS011;1512;51.486;6.610;2022-12-22T00:32:35;14.73;;;6.60;;
3004;SDS011;1512;51.486;6.610;2022-12-22T00:37:02;7.67;;;5.80;;
3004;SDS011;1512;51.486;6.610;2022-12-22T00:46:15;12.00;;;6.67;;
3004;SDS011;1512;51.486;6.610;2022-12-22T00:50:42;10.40;;;7.30;;
3004;SDS011;1512;51.486;6.610;2022-12-22T00:55:16;6.73;;;5.80;;
3004;SDS011;1512;51.486;6.610;2022-12-22T00:59:50;9.03;;;6.97;;
3004;SDS011;1512;51.486;6.610;2022-12-22T01:04:19;9.17;;;6.97;;
3004;SDS011;1512;51.486;6.610;2022-12-22T01:08:46;14.77;;;7.13;;
3004;SDS011;1512;51.486;6.610;2022-12-22T01:13:13;8.07;;;6.00;;
3004;SDS011;1512;51.486;6.610;2022-12-22T01:17:40;9.13;;;6.97;;
3004;SDS011;1512;51.486;6.610;2022-12-22T01:22:08;10.87;;;7.03;;
3004;SDS011;1512;51.486;6.610;2022-12-22T01:26:35;10.27;;;7.67;;
3004;SDS011;1512;51.486;6.610;2022-12-22T01:31:18;10.27;;;7.70;;
3004;SDS011;1512;51.486;6.610;2022-12-22T01:35:52;9.47;;;7.00;;
3004;SDS011;1512;51.486;6.610;2022-12-22T01:40:19;12.27;;;8.10;;
3004;SDS011;1512;51.486;6.610;2022-12-22T01:44:48;10.47;;;7.20;;
3004;SDS011;1512;51.486;6.610;2022-12-22T01:49:22;8.67;;;6.50;;
3004;SDS011;1512;51.486;6.610;2022-12-22T01:53:49;10.53;;;8.17;;
3004;SDS011;1512;51.486;6.610;2022-12-22T01:58:22;9.37;;;7.90;;
3004;SDS011;1512;51.486;6.610;2022-12-22T02:02:54;15.70;;;8.30;;
3004;SDS011;1512;51.486;6.610;2022-12-22T02:16:50;10.70;;;8.20;;
3004;SDS011;1512;51.486;6.610;2022-12-22T02:21:20;9.17;;;7.03;;
3004;SDS011;1512;51.486;6.610;2022-12-22T02:25:54;11.97;;;6.83;;
3004;SDS011;1512;51.486;6.610;2022-12-22T02:30:40;9.83;;;6.97;;
3004;SDS011;1512;51.486;6.610;2022-12-22T02:40:15;8.00;;;7.10;;
3004;SDS011;1512;51.486;6.610;2022-12-22T02:49:37;10.00;;;7.80;;
3004;SDS011;1512;51.486;6.610;2022-12-22T02:54:06;11.43;;;8.20;;
3004;SDS011;1512;51.486;6.610;2022-12-22T02:58:33;13.30;;;8.40;;
3004;SDS011;1512;51.486;6.610;2022-12-22T03:02:59;10.70;;;8.70;;
3004;SDS011;1512;51.486;6.610;2022-12-22T03:07:26;8.60;;;6.90;;
3004;SDS011;1512;51.486;6.610;2022-12-22T03:11:52;11.13;;;8.10;;
3004;SDS011;1512;51.486;6.610;2022-12-22T03:16:19;12.37;;;8.00;;
3004;SDS011;1512;51.486;6.610;2022-12-22T03:20:45;11.40;;;8.70;;
3004;SDS011;1512;51.486;6.610;2022-12-22T03:25:12;10.53;;;8.07;;
3004;SDS011;1512;51.486;6.610;2022-12-22T03:29:39;11.83;;;8.10;;
3004;SDS011;1512;51.486;6.610;2022-12-22T03:33:48;11.80;;;8.30;;
3004;SDS011;1512;51.486;6.610;2022-12-22T03:37:56;9.47;;;7.80;;
3004;SDS011;1512;51.486;6.610;2022-12-22T03:46:53;9.13;;;7.97;;
3004;SDS011;1512;51.486;6.610;2022-12-22T03:51:02;13.90;;;8.77;;
3004;SDS011;1512;51.486;6.610;2022-12-22T03:55:10;12.30;;;8.30;;
3004;SDS011;1512;51.486;6.610;2022-12-22T03:59:19;12.20;;;7.80;;
3004;SDS011;1512;51.486;6.610;2022-12-22T04:07:56;11.00;;;8.63;;
3004;SDS011;1512;51.486;6.610;2022-12-22T04:12:11;10.03;;;7.60;;
3004;SDS011;1512;51.486;6.610;2022-12-22T04:16:39;13.03;;;7.70;;
3004;SDS011;1512;51.486;6.610;2022-12-22T04:20:48;17.03;;;9.30;;
3004;SDS011;1512;51.486;6.610;2022-12-22T04:24:56;12.37;;;8.63;;
3004;SDS011;1512;51.486;6.610;2022-12-22T04:29:05;10.77;;;7.57;;
3004;SDS011;1512;51.486;6.610;2022-12-22T04:33:14;10.10;;;7.33;;
3004;SDS011;1512;51.486;6.610;2022-12-22T04:37:22;11.70;;;7.77;;
3004;SDS011;1512;51.486;6.610;2022-12-22T04:41:31;10.07;;;7.53;;
3004;SDS011;1512;51.486;6.610;2022-12-22T04:45:39;8.23;;;7.40;;
3004;SDS011;1512;51.486;6.610;2022-12-22T04:49:48;10.87;;;8.30;;
3004;SDS011;1512;51.486;6.610;2022-12-22T04:53:56;15.40;;;8.80;;
3004;SDS011;1512;51.486;6.610;2022-12-22T04:58:05;10.97;;;8.43;;
3004;SDS011;1512;51.486;6.610;2022-12-22T05:02:14;11.00;;;7.67;;
3004;SDS011;1512;51.486;6.610;2022-12-22T05:10:51;15.20;;;7.93;;
3004;SDS011;1512;51.486;6.610;2022-12-22T05:14:59;12.90;;;8.17;;
3004;SDS011;1512;51.486;6.610;2022-12-22T05:19:08;13.93;;;8.38;;
3004;SDS011;1512;51.486;6.610;2022-12-22T05:23:16;12.33;;;7.60;;
3004;SDS011;1512;51.486;6.610;2022-12-22T05:27:25;10.00;;;7.90;;
3004;SDS011;1512;51.486;6.610;2022-12-22T05:31:34;13.43;;;7.97;;
3004;SDS011;1512;51.486;6.610;2022-12-22T05:40:12;10.30;;;6.97;;
3004;SDS011;1512;51.486;6.610;2022-12-22T05:44:21;7.30;;;5.80;;
3004;SDS011;1512;51.486;6.610;2022-12-22T05:52:58;11.63;;;6.40;;
3004;SDS011;1512;51.486;6.610;2022-12-22T05:57:06;15.83;;;6.63;;
3004;SDS011;1512;51.486;6.610;2022-12-22T06:01:15;11.60;;;7.40;;
3004;SDS011;1512;51.486;6.610;2022-12-22T06:05:23;6.80;;;6.10;;
3004;SDS011;1512;51.486;6.610;2022-12-22T06:09:32;10.20;;;7.10;;
3004;SDS011;1512;51.486;6.610;2022-12-22T06:13:41;10.43;;;7.10;;
3004;SDS011;1512;51.486;6.610;2022-12-22T06:17:50;9.30;;;7.17;;
3004;SDS011;1512;51.486;6.610;2022-12-22T06:21:58;8.90;;;7.20;;
3004;SDS011;1512;51.486;6.610;2022-12-22T06:26:07;8.47;;;7.00;;
3004;SDS011;1512;51.486;6.610;2022-12-22T06:30:19;13.97;;;7.90;;
3004;SDS011;1512;51.486;6.610;2022-12-22T06:34:29;8.77;;;6.60;;
3004;SDS011;1512;51.486;6.610;2022-12-22T06:38:38;9.57;;;5.53;;
3004;SDS011;1512;51.486;6.610;2022-12-22T06:42:46;21.10;;;6.13;;
3004;SDS011;1512;51.486;6.610;2022-12-22T06:47:15;14.90;;;7.23;;
3004;SDS011;1512;51.486;6.610;2022-12-22T06:51:24;10.27;;;6.40;;
3004;SDS011;1512;51.486;6.610;2022-12-22T06:55:32;8.67;;;5.90;;
3004;SDS011;1512;51.486;6.610;2022-12-22T06:59:41;8.53;;;6.40;;
3004;SDS011;1512;51.486;6.610;2022-12-22T07:03:50;10.40;;;7.73;;
3004;SDS011;1512;51.486;6.610;2022-12-22T07:08:00;10.43;;;9.07;;
3004;SDS011;1512;51.486;6.610;2022-12-22T07:16:38;11.07;;;7.40;;
3004;SDS011;1512;51.486;6.610;2022-12-22T07:20:47;10.70;;;7.63;;
3004;SDS011;1512;51.486;6.610;2022-12-22T07:24:56;11.07;;;6.93;;
3004;SDS011;1512;51.486;6.610;2022-12-22T07:29:05;10.90;;;7.77;;
3004;SDS011;1512;51.486;6.610;2022-12-22T07:33:13;13.00;;;7.63;;
3004;SDS011;1512;51.486;6.610;2022-12-22T07:37:22;10.40;;;6.80;;
3004;SDS011;1512;51.486;6.610;2022-12-22T07:41:31;12.40;;;8.37;;
3004;SDS011;1512;51.486;6.610;2022-12-22T07:45:59;10.47;;;7.60;;
3004;SDS011;1512;51.486;6.610;2022-12-22T07:50:09;11.40;;;6.73;;
3004;SDS011;1512;51.486;6.610;2022-12-22T07:54:34;15.10;;;8.17;;
3004;SDS011;1512;51.486;6.610;2022-12-22T07:58:44;16.40;;;7.37;;
3004;SDS011;1512;51.486;6.610;2022-12-22T08:02:54;16.90;;;7.57;;
3004;SDS011;1512;51.486;6.610;2022-12-22T08:07:04;13.67;;;7.17;;
3004;SDS011;1512;51.486;6.610;2022-12-22T08:11:12;16.57;;;9.50;;
3004;SDS011;1512;51.486;6.610;2022-12-22T08:15:21;14.63;;;8.27;;
3004;SDS011;1512;51.486;6.610;2022-12-22T08:19:29;14.83;;;8.27;;
3004;SDS011;1512;51.486;6.610;2022-12-22T08:23:39;18.05;;;9.43;;
3004;SDS011;1512;51.486;6.610;2022-12-22T08:27:48;17.43;;;9.20;;
3004;SDS011;1512;51.486;6.610;2022-12-22T08:32:00;13.07;;;8.20;;
3004;SDS011;1512;51.486;6.610;2022-12-22T08:36:09;16.10;;;9.07;;
3004;SDS011;1512;51.486;6.610;2022-12-22T08:40:20;15.93;;;10.83;;
3004;SDS011;1512;51.486;6.610;2022-12-22T08:44:30;16.30;;;10.20;;
3004;SDS011;1512;51.486;6.610;2022-12-22T08:48:39;13.90;;;8.17;;
3004;SDS011;1512;51.486;6.610;2022-12-22T08:52:47;16.03;;;9.07;;
3004;SDS011;1512;51.486;6.610;2022-12-22T08:56:56;13.03;;;7.53;;
3004;SDS011;1512;51.486;6.610;2022-12-22T09:01:04;15.50;;;8.73;;
3004;SDS011;1512;51.486;6.610;2022-12-22T09:05:13;14.43;;;8.17;;
3004;SDS011;1512;51.486;6.610;2022-12-22T09:09:22;16.53;;;8.10;;
3004;SDS011;1512;51.486;6.610;2022-12-22T09:13:31;15.90;;;9.47;;
3004;SDS011;1512;51.486;6.610;2022-12-22T09:17:39;13.80;;;8.77;;
3004;SDS011;1512;51.486;6.610;2022-12-22T09:21:49;19.27;;;9.40;;
3004;SDS011;1512;51.486;6.610;2022-12-22T09:25:58;15.63;;;8.87;;
3004;SDS011;1512;51.486;6.610;2022-12-22T09:30:07;12.60;;;7.50;;
3004;SDS011;1512;51.486;6.610;2022-12-22T09:34:16;15.43;;;8.90;;
3004;SDS011;1512;51.486;6.610;2022-12-22T09:38:25;14.10;;;9.80;;
3004;SDS011;1512;51.486;6.610;2022-12-22T09:42:34;15.23;;;10.40;;
3004;SDS011;1512;51.486;6.610;2022-12-22T09:46:45;16.10;;;8.73;;
3004;SDS011;1512;51.486;6.610;2022-12-22T09:50:54;19.40;;;10.20;;
3004;SDS011;1512;51.486;6.610;2022-12-22T09:55:03;15.57;;;9.77;;
3004;SDS011;1512;51.486;6.610;2022-12-22T09:59:15;18.77;;;9.80;;
3004;SDS011;1512;51.486;6.610;2022-12-22T10:08:17;20.40;;;9.97;;
3004;SDS011;1512;51.486;6.610;2022-12-22T10:12:29;21.10;;;11.90;;
3004;SDS011;1512;51.486;6.610;2022-12-22T10:21:13;25.50;;;11.73;;
3004;SDS011;1512;51.486;6.610;2022-12-22T10:25:27;20.03;;;10.83;;
3004;SDS011;1512;51.486;6.610;2022-12-22T10:29:36;19.63;;;11.17;;
3004;SDS011;1512;51.486;6.610;2022-12-22T10:33:46;23.20;;;12.30;;
3004;SDS011;1512;51.486;6.610;2022-12-22T10:37:56;25.40;;;11.00;;
3004;SDS011;1512;51.486;6.610;2022-12-22T10:42:09;22.37;;;11.57;;
3004;SDS011;1512;51.486;6.610;2022-12-22T10:46:28;25.13;;;12.37;;
3004;SDS011;1512;51.486;6.610;2022-12-22T10:50:47;23.67;;;13.20;;
3004;SDS011;1512;51.486;6.610;2022-12-22T11:04:20;23.53;;;12.37;;
3004;SDS011;1512;51.486;6.610;2022-12-22T11:08:33;24.93;;;11.00;;
3004;SDS011;1512;51.486;6.610;2022-12-22T11:17:11;20.67;;;11.80;;
3004;SDS011;1512;51.486;6.610;2022-12-22T11:21:27;28.60;;;13.00;;
3004;SDS011;1512;51.486;6.610;2022-12-22T11:25:50;26.83;;;11.00;;
3004;SDS011;1512;51.486;6.610;2022-12-22T11:30:18;29.70;;;10.83;;
3004;SDS011;1512;51.486;6.610;2022-12-22T11:34:52;19.10;;;11.37;;
3004;SDS011;1512;51.486;6.610;2022-12-22T11:39:14;18.70;;;11.13;;
3004;SDS011;1512;51.486;6.610;2022-12-22T12:05:58;13.97;;;8.93;;
3004;SDS011;1512;51.486;6.610;2022-12-22T12:14:52;17.80;;;9.93;;
3004;SDS011;1512;51.486;6.610;2022-12-22T12:32:46;14.77;;;9.67;;
3004;SDS011;1512;51.486;6.610;2022-12-22T12:41:51;18.63;;;11.40;;
3004;SDS011;1512;51.486;6.610;2022-12-22T12:46:17;20.03;;;12.30;;
3004;SDS011;1512;51.486;6.610;2022-12-22T12:50:32;21.87;;;11.20;;
3004;SDS011;1512;51.486;6.610;2022-12-22T12:54:45;22.07;;;10.83;;
3004;SDS011;1512;51.486;6.610;2022-12-22T12:58:54;18.50;;;11.87;;
3004;SDS011;1512;51.486;6.610;2022-12-22T13:16:48;20.93;;;11.60;;
3004;SDS011;1512;51.486;6.610;2022-12-22T13:21:00;16.20;;;10.70;;
3004;SDS011;1512;51.486;6.610;2022-12-22T13:25:15;17.20;;;10.10;;
3004;SDS011;1512;51.486;6.610;2022-12-22T13:38:41;16.97;;;10.03;;
3004;SDS011;1512;51.486;6.610;2022-12-22T13:47:12;16.57;;;10.77;;
3004;SDS011;1512;51.486;6.610;2022-12-22T13:51:26;14.77;;;10.00;;
3004;SDS011;1512;51.486;6.610;2022-12-22T13:55:35;32.37;;;18.30;;
3004;SDS011;1512;51.486;6.610;2022-12-22T13:59:45;22.77;;;14.27;;
3004;SDS011;1512;51.486;6.610;2022-12-22T14:04:01;16.43;;;10.13;;
3004;SDS011;1512;51.486;6.610;2022-12-22T14:08:13;14.60;;;10.17;;
3004;SDS011;1512;51.486;6.610;2022-12-22T14:12:30;13.80;;;11.27;;
3004;SDS011;1512;51.486;6.610;2022-12-22T14:16:41;12.23;;;9.40;;
3004;SDS011;1512;51.486;6.610;2022-12-22T14:20:53;16.27;;;12.67;;
3004;SDS011;1512;51.486;6.610;2022-12-22T14:25:07;16.33;;;9.80;;
3004;SDS011;1512;51.486;6.610;2022-12-22T14:29:26;12.20;;;8.47;;
3004;SDS011;1512;51.486;6.610;2022-12-22T14:33:38;16.10;;;10.00;;
3004;SDS011;1512;51.486;6.610;2022-12-22T14:37:53;11.97;;;7.40;;
3004;SDS011;1512;51.486;6.610;2022-12-22T15:00:35;18.70;;;9.30;;
3004;SDS011;1512;51.486;6.610;2022-12-22T15:04:46;13.10;;;8.90;;
3004;SDS011;1512;51.486;6.610;2022-12-22T15:13:40;16.40;;;8.70;;
3004;SDS011;1512;51.486;6.610;2022-12-22T15:17:51;11.63;;;7.50;;
3004;SDS011;1512;51.486;6.610;2022-12-22T15:22:00;14.33;;;9.37;;
3004;SDS011;1512;51.486;6.610;2022-12-22T15:26:09;14.90;;;6.50;;
3004;SDS011;1512;51.486;6.610;2022-12-22T15:30:20;15.13;;;7.80;;
3004;SDS011;1512;51.486;6.610;2022-12-22T15:34:35;10.40;;;6.97;;
3004;SDS011;1512;51.486;6.610;2022-12-22T15:38:44;9.93;;;7.03;;
3004;SDS011;1512;51.486;6.610;2022-12-22T15:47:32;14.93;;;6.07;;
3004;SDS011;1512;51.486;6.610;2022-12-22T15:51:57;8.13;;;6.10;;
3004;SDS011;1512;51.486;6.610;2022-12-22T15:56:08;6.80;;;5.80;;
3004;SDS011;1512;51.486;6.610;2022-12-22T16:00:21;8.70;;;5.30;;
3004;SDS011;1512;51.486;6.610;2022-12-22T16:04:30;7.63;;;6.30;;
3004;SDS011;1512;51.486;6.610;2022-12-22T16:08:39;10.67;;;6.97;;
3004;SDS011;1512;51.486;6.610;2022-12-22T16:12:49;8.37;;;6.90;;
3004;SDS011;1512;51.486;6.610;2022-12-22T16:17:03;7.23;;;6.40;;
3004;SDS011;1512;51.486;6.610;2022-12-22T16:21:13;8.27;;;6.40;;
3004;SDS011;1512;51.486;6.610;2022-12-22T16:25:25;12.97;;;7.33;;
3004;SDS011;1512;51.486;6.610;2022-12-22T16:29:36;11.73;;;6.40;;
3004;SDS011;1512;51.486;6.610;2022-12-22T16:34:08;8.97;;;5.90;;
3004;SDS011;1512;51.486;6.610;2022-12-22T16:38:17;8.23;;;6.70;;
3004;SDS011;1512;51.486;6.610;2022-12-22T16:42:26;12.03;;;7.90;;
3004;SDS011;1512;51.486;6.610;2022-12-22T16:46:54;11.50;;;6.60;;
3004;SDS011;1512;51.486;6.610;2022-12-22T16:51:04;9.77;;;7.43;;
3004;SDS011;1512;51.486;6.610;2022-12-22T16:55:14;9.73;;;6.80;;
3004;SDS011;1512;51.486;6.610;2022-12-22T16:59:23;10.20;;;7.90;;
3004;SDS011;1512;51.486;6.610;2022-12-22T17:03:32;12.07;;;7.57;;
3004;SDS011;1512;51.486;6.610;2022-12-22T17:07:42;9.33;;;6.27;;
3004;SDS011;1512;51.486;6.610;2022-12-22T17:11:52;13.87;;;8.47;;
3004;SDS011;1512;51.486;6.610;2022-12-22T17:16:01;13.53;;;7.53;;
3004;SDS011;1512;51.486;6.610;2022-12-22T17:20:15;12.40;;;7.53;;
3004;SDS011;1512;51.486;6.610;2022-12-22T17:24:25;11.13;;;7.33;;
3004;SDS011;1512;51.486;6.610;2022-12-22T17:28:35;7.77;;;6.53;;
3004;SDS011;1512;51.486;6.610;2022-12-22T17:32:45;9.63;;;6.73;;
3004;SDS011;1512;51.486;6.610;2022-12-22T17:36:54;7.03;;;5.90;;
3004;SDS011;1512;51.486;6.610;2022-12-22T17:41:04;10.73;;;6.07;;
3004;SDS011;1512;51.486;6.610;2022-12-22T17:45:16;9.53;;;6.03;;
3004;SDS011;1512;51.486;6.610;2022-12-22T17:49:25;14.10;;;7.10;;
3004;SDS011;1512;51.486;6.610;2022-12-22T17:53:34;6.43;;;5.00;;
3004;SDS011;1512;51.486;6.610;2022-12-22T17:57:44;9.07;;;6.07;;
3004;SDS011;1512;51.486;6.610;2022-12-22T18:01:53;10.13;;;6.00;;
3004;SDS011;1512;51.486;6.610;2022-12-22T18:06:02;7.77;;;5.87;;
3004;SDS011;1512;51.486;6.610;2022-12-22T18:14:32;7.20;;;5.30;;
3004;SDS011;1512;51.486;6.610;2022-12-22T18:18:41;7.70;;;5.63;;
3004;SDS011;1512;51.486;6.610;2022-12-22T18:22:56;7.37;;;6.00;;
3004;SDS011;1512;51.486;6.610;2022-12-22T18:27:10;9.73;;;7.00;;
3004;SDS011;1512;51.486;6.610;2022-12-22T18:31:19;8.17;;;5.50;;
3004;SDS011;1512;51.486;6.610;2022-12-22T18:35:28;6.47;;;5.23;;
3004;SDS011;1512;51.486;6.610;2022-12-22T18:39:37;8.73;;;5.13;;
3004;SDS011;1512;51.486;6.610;2022-12-22T18:43:50;8.20;;;6.63;;
3004;SDS011;1512;51.486;6.610;2022-12-22T18:48:04;7.97;;;5.00;;
3004;SDS011;1512;51.486;6.610;2022-12-22T18:52:21;7.00;;;5.13;;
3004;SDS011;1512;51.486;6.610;2022-12-22T18:56:27;6.90;;;5.80;;
3004;SDS011;1512;51.486;6.610;2022-12-22T19:00:40;18.60;;;6.00;;
3004;SDS011;1512;51.486;6.610;2022-12-22T19:04:54;10.00;;;5.50;;
3004;SDS011;1512;51.486;6.610;2022-12-22T19:09:08;12.73;;;5.50;;
3004;SDS011;1512;51.486;6.610;2022-12-22T19:17:43;8.03;;;5.23;;
3004;SDS011;1512;51.486;6.610;2022-12-22T19:21:51;15.73;;;5.40;;
3004;SDS011;1512;51.486;6.610;2022-12-22T19:26:01;6.97;;;5.00;;
3004;SDS011;1512;51.486;6.610;2022-12-22T19:30:16;9.03;;;6.03;;
3004;SDS011;1512;51.486;6.610;2022-12-22T19:34:27;6.70;;;4.97;;
3004;SDS011;1512;51.486;6.610;2022-12-22T19:38:36;8.77;;;5.40;;
3004;SDS011;1512;51.486;6.610;2022-12-22T19:42:49;11.47;;;5.43;;
3004;SDS011;1512;51.486;6.610;2022-12-22T19:46:59;11.53;;;5.60;;
3004;SDS011;1512;51.486;6.610;2022-12-22T19:51:29;19.60;;;6.27;;
3004;SDS011;1512;51.486;6.610;2022-12-22T19:55:42;12.70;;;6.23;;
3004;SDS011;1512;51.486;6.610;2022-12-22T19:59:53;11.20;;;6.10;;
3004;SDS011;1512;51.486;6.610;2022-12-22T20:04:01;18.47;;;5.20;;
3004;SDS011;1512;51.486;6.610;2022-12-22T20:08:10;8.40;;;4.70;;
3004;SDS011;1512;51.486;6.610;2022-12-22T20:12:29;15.63;;;6.43;;
3004;SDS011;1512;51.486;6.610;2022-12-22T20:16:37;9.40;;;4.90;;
3004;SDS011;1512;51.486;6.610;2022-12-22T20:20:51;11.20;;;4.60;;
3004;SDS011;1512;51.486;6.610;2022-12-22T20:25:02;18.03;;;6.30;;
3004;SDS011;1512;51.486;6.610;2022-12-22T20:29:12;16.57;;;5.27;;
3004;SDS011;1512;51.486;6.610;2022-12-22T20:33:22;9.70;;;5.30;;
3004;SDS011;1512;51.486;6.610;2022-12-22T20:37:31;13.37;;;4.93;;
3004;SDS011;1512;51.486;6.610;2022-12-22T20:41:46;12.30;;;5.93;;
3004;SDS011;1512;51.486;6.610;2022-12-22T20:45:57;18.37;;;5.67;;
3004;SDS011;1512;51.486;6.610;2022-12-22T20:54:28;12.10;;;4.60;;
3004;SDS011;1512;51.486;6.610;2022-12-22T20:58:37;19.60;;;4.57;;
3004;SDS011;1512;51.486;6.610;2022-12-22T21:02:47;9.43;;;4.37;;
3004;SDS011;1512;51.486;6.610;2022-12-22T21:06:58;14.10;;;5.00;;
3004;SDS011;1512;51.486;6.610;2022-12-22T21:11:07;11.73;;;4.53;;
3004;SDS011;1512;51.486;6.610;2022-12-22T21:15:27;8.43;;;4.23;;
3004;SDS011;1512;51.486;6.610;2022-12-22T21:19:35;23.63;;;5.40;;
3004;SDS011;1512;51.486;6.610;2022-12-22T21:23:44;8.93;;;4.63;;
3004;SDS011;1512;51.486;6.610;2022-12-22T21:27:52;12.33;;;4.93;;
3004;SDS011;1512;51.486;6.610;2022-12-22T21:32:02;9.30;;;5.30;;
3004;SDS011;1512;51.486;6.610;2022-12-22T21:36:16;13.63;;;4.50;;
3004;SDS011;1512;51.486;6.610;2022-12-22T21:40:28;9.00;;;5.30;;
3004;SDS011;1512;51.486;6.610;2022-12-22T21:44:33;9.63;;;4.37;;
3004;SDS011;1512;51.486;6.610;2022-12-22T21:48:42;9.17;;;4.40;;
3004;SDS011;1512;51.486;6.610;2022-12-22T21:52:51;7.97;;;4.60;;
3004;SDS011;1512;51.486;6.610;2022-12-22T21:56:59;13.87;;;5.07;;
3004;SDS011;1512;51.486;6.610;2022-12-22T22:01:14;12.90;;;4.00;;
3004;SDS011;1512;51.486;6.610;2022-12-22T22:05:24;11.23;;;4.30;;
3004;SDS011;1512;51.486;6.610;2022-12-22T22:09:37;5.93;;;5.00;;
3004;SDS011;1512;51.486;6.610;2022-12-22T22:13:46;8.83;;;5.10;;
3004;SDS011;1512;51.486;6.610;2022-12-22T22:22:26;5.70;;;3.53;;
3004;SDS011;1512;51.486;6.610;2022-12-22T22:31:07;9.13;;;4.60;;
3004;SDS011;1512;51.486;6.610;2022-12-22T22:35:16;12.30;;;4.60;;
3004;SDS011;1512;51.486;6.610;2022-12-22T22:39:29;14.10;;;5.07;;
3004;SDS011;1512;51.486;6.610;2022-12-22T22:43:38;10.10;;;4.40;;
3004;SDS011;1512;51.486;6.610;2022-12-22T22:47:47;10.00;;;4.50;;
3004;SDS011;1512;51.486;6.610;2022-12-22T22:51:56;8.07;;;4.50;;
3004;SDS011;1512;51.486;6.610;2022-12-22T22:56:05;7.70;;;4.40;;
3004;SDS011;1512;51.486;6.610;2022-12-22T23:00:16;12.80;;;5.70;;
3004;SDS011;1512;51.486;6.610;2022-12-22T23:04:25;9.80;;;4.03;;
3004;SDS011;1512;51.486;6.610;2022-12-22T23:17:30;7.37;;;4.40;;
3004;SDS011;1512;51.486;6.610;2022-12-22T23:21:38;10.03;;;4.90;;
3004;SDS011;1512;51.486;6.610;2022-12-22T23:25:48;7.27;;;3.90;;
3004;SDS011;1512;51.486;6.610;2022-12-22T23:29:57;10.90;;;5.03;;
3004;SDS011;1512;51.486;6.610;2022-12-22T23:34:05;8.93;;;4.30;;
3004;SDS011;1512;51.486;6.610;2022-12-22T23:38:14;10.00;;;4.33;;
3004;SDS011;1512;51.486;6.610;2022-12-22T23:42:25;13.20;;;4.50;;
3004;SDS011;1512;51.486;6.610;2022-12-22T23:46:33;7.17;;;5.00;;
3004;SDS011;1512;51.486;6.610;2022-12-22T23:50:45;10.68;;;4.25;;
3004;SDS011;1512;51.486;6.610;2022-12-22T23:54:55;5.93;;;4.93;;
3004;SDS011;1512;51.486;6.610;2022-12-22T23:59:04;11.73;;;4.93;;
